Time;durP1;ratioP1;P1;durP2;ratioP2;P2;SDS_P1;SDS_P2;PMS_P1;PMS_P2;Temp;Humidity;BMP_temperature;BMP_pressure;BME280_temperature;BME280_humidity;BME280_pressure;Samples;Min_cycle;Max_cycle;Signal;HPM_P1;HPM_P2
2022/07/28 00:02:10;;;;;;;11.93;9.52;;;28.90;1.00;;;;;;5104611;28;20041;-49
2022/07/28 00:04:36;;;;;;;11.25;10.25;;;28.90;1.00;;;;;;5107855;28;20389;-48
2022/07/28 00:07:01;;;;;;;12.27;11.07;;;28.70;1.00;;;;;;5110208;28;20065;-48
2022/07/28 00:09:27;;;;;;;12.27;10.98;;;28.70;1.00;;;;;;5110820;28;20035;-51
2022/07/28 00:11:53;;;;;;;15.07;11.38;;;28.70;1.00;;;;;;5109763;28;20028;-52
2022/07/28 00:14:20;;;;;;;13.80;11.40;;;28.60;1.00;;;;;;5107281;28;20023;-52
2022/07/28 00:16:46;;;;;;;14.88;11.82;;;28.70;1.00;;;;;;5110416;28;20019;-48
2022/07/28 00:19:11;;;;;;;13.73;12.48;;;28.60;1.00;;;;;;5109538;28;20073;-49
2022/07/28 00:21:37;;;;;;;14.25;12.80;;;28.40;1.00;;;;;;5111075;28;20032;-49
2022/07/28 00:24:03;;;;;;;13.68;12.40;;;28.40;1.00;;;;;;5101060;28;20020;-51
2022/07/28 00:26:28;;;;;;;13.02;11.82;;;28.30;1.00;;;;;;5108993;28;20028;-52
2022/07/28 00:28:54;;;;;;;13.43;12.13;;;28.40;1.00;;;;;;5104907;28;20093;-50
2022/07/28 00:34:38;;;;;;;14.25;12.50;;;28.30;1.00;;;;;;5106519;28;20048;-54
2022/07/28 00:37:04;;;;;;;14.02;12.60;;;28.20;1.00;;;;;;5111007;28;20038;-51
2022/07/28 00:39:29;;;;;;;13.50;12.10;;;28.30;1.00;;;;;;5108244;28;20024;-54
2022/07/28 00:41:55;;;;;;;15.95;12.52;;;28.30;1.00;;;;;;5112226;28;20127;-49
2022/07/28 00:44:22;;;;;;;13.75;12.30;;;28.30;1.00;;;;;;5108959;28;20023;-48
2022/07/28 00:46:49;;;;;;;14.52;13.02;;;28.20;1.00;;;;;;5109690;28;20158;-48
2022/07/28 00:49:15;;;;;;;14.68;12.73;;;28.10;1.00;;;;;;5110638;28;20031;-49
2022/07/28 00:51:40;;;;;;;15.40;14.02;;;28.10;1.00;;;;;;5110424;28;20058;-52
2022/07/28 00:54:06;;;;;;;13.93;12.65;;;28.10;1.00;;;;;;5110891;28;20031;-51
2022/07/28 00:56:32;;;;;;;13.95;12.65;;;28.00;1.00;;;;;;5109005;28;20024;-53
2022/07/28 00:58:58;;;;;;;16.55;13.13;;;27.90;1.00;;;;;;5108756;28;20027;-51
2022/07/28 01:01:24;;;;;;;15.43;13.80;;;27.90;1.00;;;;;;5109611;28;20108;-51
2022/07/28 01:03:56;;;;;;;14.32;13.00;;;27.80;1.00;;;;;;5109359;28;20027;-49
2022/07/28 01:06:31;;;;;;;15.52;14.00;;;27.70;1.00;;;;;;5108184;28;20354;-49
2022/07/28 01:09:48;;;;;;;14.13;12.73;;;27.50;1.00;;;;;;5111757;28;20521;-50
2022/07/28 01:12:33;;;;;;;13.20;11.90;;;27.70;1.00;;;;;;5096437;28;20580;-49
2022/07/28 01:15:10;;;;;;;14.13;12.20;;;27.60;1.00;;;;;;5111157;28;20059;-49
2022/07/28 01:17:53;;;;;;;12.95;11.77;;;27.60;1.00;;;;;;5107622;28;20415;-49
2022/07/28 01:20:29;;;;;;;12.02;10.77;;;27.70;1.00;;;;;;5113128;28;20067;-51
2022/07/28 01:23:03;;;;;;;13.05;10.63;;;27.60;1.00;;;;;;5109981;28;20032;-53
2022/07/28 01:25:55;;;;;;;10.95;9.95;;;27.60;1.00;;;;;;5107043;28;20122;-53
2022/07/28 01:28:55;;;;;;;11.55;10.18;;;27.60;1.00;;;;;;5110470;28;20038;-49
2022/07/28 01:31:24;;;;;;;13.60;9.50;;;27.60;1.00;;;;;;5103171;28;20127;-50
2022/07/28 01:34:02;;;;;;;10.00;9.10;;;27.70;1.00;;;;;;5108674;28;20034;-53
2022/07/28 01:36:32;;;;;;;9.50;8.05;;;27.60;1.00;;;;;;5098470;28;20031;-48
2022/07/28 01:38:59;;;;;;;9.18;8.32;;;27.70;1.00;;;;;;5106367;28;20523;-53
2022/07/28 01:41:29;;;;;;;10.38;9.27;;;27.70;1.00;;;;;;5113373;28;20070;-52
2022/07/28 01:43:59;;;;;;;9.38;8.40;;;27.50;1.00;;;;;;5101656;28;20441;-47
2022/07/28 01:46:26;;;;;;;8.52;7.72;;;27.40;1.00;;;;;;5108742;28;20016;-48
2022/07/28 01:48:54;;;;;;;8.80;7.90;;;27.60;1.00;;;;;;5111938;28;20065;-49
2022/07/28 01:51:21;;;;;;;10.48;7.82;;;27.60;1.00;;;;;;5111086;28;20519;-50
2022/07/28 01:53:50;;;;;;;7.85;7.15;;;27.60;1.00;;;;;;5104864;28;20023;-49
2022/07/28 01:56:19;;;;;;;8.48;7.35;;;27.60;1.00;;;;;;5112746;28;20035;-47
2022/07/28 01:58:47;;;;;;;8.30;6.40;;;27.50;1.00;;;;;;5114211;28;20386;-48
2022/07/28 02:01:16;;;;;;;7.90;7.13;;;27.40;1.00;;;;;;5110176;28;20066;-47
2022/07/28 02:03:43;;;;;;;8.20;5.85;;;27.40;1.00;;;;;;5104991;28;20342;-48
2022/07/28 02:06:11;;;;;;;6.05;5.55;;;27.40;1.00;;;;;;5111411;28;20019;-49
2022/07/28 02:08:39;;;;;;;8.23;5.93;;;27.50;1.00;;;;;;5088303;28;20388;-48
2022/07/28 02:13:52;;;;;;;6.57;5.97;;;27.50;1.00;;;;;;5105315;28;20127;-48
2022/07/28 02:16:21;;;;;;;5.82;5.07;;;27.40;1.00;;;;;;5113143;28;20122;-51
2022/07/28 02:18:49;;;;;;;6.47;5.30;;;27.40;1.00;;;;;;5113949;28;20419;-48
2022/07/28 02:21:16;;;;;;;6.82;6.10;;;27.30;1.00;;;;;;5094395;28;20039;-51
2022/07/28 02:23:46;;;;;;;7.80;6.03;;;27.40;1.00;;;;;;5110589;28;20026;-49
2022/07/28 02:26:13;;;;;;;5.90;5.38;;;27.30;1.00;;;;;;5111641;28;20028;-51
2022/07/28 02:28:42;;;;;;;7.05;6.40;;;27.30;1.00;;;;;;5113962;28;20031;-48
2022/07/28 02:31:28;;;;;;;6.57;5.97;;;27.00;1.00;;;;;;5109149;28;20040;-49
2022/07/28 02:33:58;;;;;;;6.25;5.75;;;27.10;1.00;;;;;;5112697;28;20047;-48
2022/07/28 02:36:33;;;;;;;6.93;6.32;;;27.10;1.00;;;;;;5095294;28;20464;-48
2022/07/28 02:39:07;;;;;;;7.60;6.60;;;27.10;1.00;;;;;;5112713;28;20059;-50
2022/07/28 02:41:37;;;;;;;6.75;6.00;;;27.00;1.00;;;;;;5113652;28;20062;-49
2022/07/28 02:44:10;;;;;;;6.32;5.75;;;27.10;1.00;;;;;;5110247;28;20054;-48
2022/07/28 02:46:42;;;;;;;8.90;5.93;;;27.10;1.00;;;;;;5112498;27;20051;-49
2022/07/28 02:49:15;;;;;;;7.07;6.40;;;27.10;1.00;;;;;;5111271;28;20027;-49
2022/07/28 02:51:42;;;;;;;7.50;6.22;;;27.10;1.00;;;;;;5112228;28;20036;-53
2022/07/28 02:54:09;;;;;;;7.25;6.50;;;27.20;1.00;;;;;;5103360;27;20022;-54
2022/07/28 02:56:35;;;;;;;6.20;5.60;;;27.10;1.00;;;;;;5102987;28;20027;-49
2022/07/28 02:59:02;;;;;;;6.57;5.90;;;27.10;1.00;;;;;;5108842;28;20016;-49
2022/07/28 03:01:30;;;;;;;7.07;6.38;;;27.00;1.00;;;;;;5102025;27;20401;-48
2022/07/28 03:03:56;;;;;;;7.80;5.97;;;27.10;1.00;;;;;;5108946;28;20130;-49
2022/07/28 03:06:23;;;;;;;6.55;5.45;;;27.10;1.00;;;;;;5112853;27;20085;-48
2022/07/28 03:08:49;;;;;;;7.00;5.43;;;27.10;1.00;;;;;;5112778;28;20373;-48
2022/07/28 03:11:15;;;;;;;6.07;5.57;;;27.20;1.00;;;;;;5102468;28;20452;-52
2022/07/28 03:13:41;;;;;;;6.45;5.95;;;27.20;1.00;;;;;;5096928;28;20041;-53
2022/07/28 03:16:07;;;;;;;6.82;5.57;;;27.10;1.00;;;;;;5110470;27;20024;-53
2022/07/28 03:18:33;;;;;;;6.63;6.05;;;27.10;1.00;;;;;;5092435;28;20034;-52
2022/07/28 03:20:59;;;;;;;6.90;6.20;;;27.20;1.00;;;;;;5100784;27;20401;-50
2022/07/28 03:23:37;;;;;;;5.90;5.40;;;27.10;1.00;;;;;;5111158;28;20043;-53
2022/07/28 03:26:11;;;;;;;6.03;5.53;;;27.10;1.00;;;;;;5112074;28;20415;-53
2022/07/28 03:28:37;;;;;;;;;;;27.20;1.00;;;;;;5091581;28;20066;-51
2022/07/28 03:31:08;;;;;;;7.35;6.75;;;27.10;1.00;;;;;;5110845;27;20002;-51
2022/07/28 03:33:34;;;;;;;7.15;6.43;;;27.00;1.00;;;;;;5104340;28;20031;-48
2022/07/28 03:36:04;;;;;;;7.60;6.45;;;27.00;1.00;;;;;;5110815;28;20023;-52
2022/07/28 03:38:39;;;;;;;8.85;6.93;;;27.00;1.00;;;;;;5112579;28;20027;-49
2022/07/28 03:41:08;;;;;;;6.63;5.97;;;26.90;1.00;;;;;;5109940;28;20048;-47
2022/07/28 03:43:34;;;;;;;9.25;7.07;;;27.00;1.00;;;;;;5105369;28;20113;-50
2022/07/28 03:46:00;;;;;;;7.60;6.68;;;26.90;1.00;;;;;;5112502;28;20065;-48
2022/07/28 03:48:33;;;;;;;8.73;7.30;;;27.00;1.00;;;;;;5112092;28;20038;-49
2022/07/28 03:50:59;;;;;;;8.23;7.53;;;27.00;1.00;;;;;;5111563;28;20314;-50
2022/07/28 03:53:27;;;;;;;7.72;6.95;;;27.00;1.00;;;;;;5092835;28;20043;-49
2022/07/28 03:55:52;;;;;;;6.85;6.30;;;26.90;1.00;;;;;;5112055;28;20043;-51
2022/07/28 03:58:23;;;;;;;7.07;6.40;;;26.90;1.00;;;;;;5109992;28;20465;-50
2022/07/28 04:00:50;;;;;;;7.80;6.97;;;26.90;1.00;;;;;;5110089;28;20022;-48
2022/07/28 04:03:19;;;;;;;7.88;5.93;;;26.90;1.00;;;;;;5110035;28;20041;-48
2022/07/28 04:05:45;;;;;;;7.30;6.53;;;26.90;1.00;;;;;;5110299;28;20085;-48
2022/07/28 04:08:11;;;;;;;7.25;5.72;;;26.90;1.00;;;;;;5109789;28;20154;-47
2022/07/28 04:10:37;;;;;;;5.90;5.32;;;26.80;1.00;;;;;;5105244;28;20232;-51
2022/07/28 04:13:02;;;;;;;5.47;4.97;;;26.90;1.00;;;;;;5111374;28;20051;-48
2022/07/28 04:15:30;;;;;;;4.80;4.40;;;26.90;1.00;;;;;;5095346;28;20043;-51
2022/07/28 04:17:55;;;;;;;6.53;5.10;;;26.90;1.00;;;;;;5109963;28;20058;-49
2022/07/28 04:20:23;;;;;;;6.50;4.47;;;26.90;1.00;;;;;;5111597;28;20473;-49
2022/07/28 04:22:49;;;;;;;5.47;4.97;;;27.00;1.00;;;;;;5111052;28;20441;-47
2022/07/28 04:25:16;;;;;;;5.03;4.28;;;27.00;1.00;;;;;;5110686;28;20089;-47
2022/07/28 04:27:43;;;;;;;5.53;4.20;;;27.10;1.00;;;;;;5110217;28;20099;-50
2022/07/28 04:30:17;;;;;;;5.00;4.60;;;27.10;1.00;;;;;;5111864;28;20336;-48
2022/07/28 04:32:48;;;;;;;5.50;5.00;;;27.10;1.00;;;;;;5108204;28;20024;-47
2022/07/28 04:35:14;;;;;;;7.00;5.72;;;27.10;1.00;;;;;;5108671;28;20031;-47
2022/07/28 04:37:40;;;;;;;5.78;5.18;;;27.00;1.00;;;;;;5109365;28;20401;-47
2022/07/28 04:40:08;;;;;;;6.13;5.18;;;26.90;1.00;;;;;;5110363;28;20031;-47
2022/07/28 04:42:35;;;;;;;6.03;4.95;;;26.90;1.00;;;;;;5110380;28;20411;-48
2022/07/28 04:45:01;;;;;;;5.15;4.63;;;27.00;1.00;;;;;;5110737;28;20456;-46
2022/07/28 04:47:28;;;;;;;5.35;4.85;;;27.00;1.00;;;;;;5106424;28;20147;-47
2022/07/28 04:49:54;;;;;;;5.28;4.53;;;27.20;1.00;;;;;;5114563;28;20027;-51
2022/07/28 04:52:20;;;;;;;7.82;5.68;;;27.00;1.00;;;;;;5108064;28;20070;-50
2022/07/28 04:54:47;;;;;;;5.78;4.35;;;27.10;1.00;;;;;;5103193;28;20082;-51
2022/07/28 04:57:13;;;;;;;5.82;5.22;;;27.20;1.00;;;;;;5111111;28;20457;-51
2022/07/28 04:59:39;;;;;;;5.47;4.75;;;27.10;1.00;;;;;;5104712;28;20388;-48
2022/07/28 05:02:20;;;;;;;5.65;5.10;;;27.20;1.00;;;;;;5107875;28;20146;-50
2022/07/28 05:04:45;;;;;;;6.60;5.50;;;27.20;1.00;;;;;;5096041;28;20031;-51
2022/07/28 05:07:11;;;;;;;5.75;5.18;;;27.20;1.00;;;;;;5108662;28;20095;-49
2022/07/28 05:09:37;;;;;;;6.30;5.70;;;27.20;1.00;;;;;;5116226;28;20421;-52
2022/07/28 05:12:04;;;;;;;6.13;5.53;;;27.20;1.00;;;;;;5113733;28;20035;-49
2022/07/28 05:14:30;;;;;;;7.15;5.32;;;27.20;1.00;;;;;;5115195;28;20023;-51
2022/07/28 05:16:56;;;;;;;5.28;4.78;;;27.30;1.00;;;;;;5114737;28;20015;-48
2022/07/28 05:19:22;;;;;;;6.85;5.32;;;27.30;1.00;;;;;;5115091;28;20024;-49
2022/07/28 05:21:47;;;;;;;8.40;5.80;;;27.30;1.00;;;;;;5114275;28;20024;-48
2022/07/28 05:24:13;;;;;;;7.13;5.93;;;27.30;1.00;;;;;;5113647;28;20153;-49
2022/07/28 05:26:39;;;;;;;5.88;5.18;;;27.30;1.00;;;;;;5114361;28;20016;-48
2022/07/28 05:29:05;;;;;;;5.68;4.40;;;27.40;1.00;;;;;;5115012;28;20078;-48
2022/07/28 05:31:31;;;;;;;5.97;5.30;;;27.40;1.00;;;;;;5113230;28;20016;-50
2022/07/28 05:33:56;;;;;;;6.95;5.38;;;27.30;1.00;;;;;;5110405;28;20016;-51
2022/07/28 05:36:22;;;;;;;5.88;5.25;;;27.40;1.00;;;;;;5114153;28;20026;-50
2022/07/28 05:38:48;;;;;;;5.53;4.90;;;27.50;1.00;;;;;;5097294;28;20027;-51
2022/07/28 05:41:13;;;;;;;5.07;4.68;;;27.50;1.00;;;;;;5114395;28;20512;-48
2022/07/28 05:43:39;;;;;;;4.97;4.38;;;27.60;1.00;;;;;;5113775;28;20469;-51
2022/07/28 05:46:05;;;;;;;5.10;4.68;;;27.70;1.00;;;;;;5111751;28;20031;-49
2022/07/28 05:48:30;;;;;;;5.22;4.13;;;27.70;1.00;;;;;;5114707;28;20107;-50
2022/07/28 05:50:56;;;;;;;5.30;4.20;;;27.70;1.00;;;;;;5113849;28;20043;-50
2022/07/28 05:53:22;;;;;;;7.75;4.68;;;27.70;1.00;;;;;;5113875;28;20024;-51
2022/07/28 05:55:48;;;;;;;8.15;4.75;;;27.80;1.00;;;;;;5113248;28;20466;-51
2022/07/28 05:58:14;;;;;;;5.07;4.57;;;27.90;1.00;;;;;;5094692;28;20115;-53
2022/07/28 06:00:40;;;;;;;5.90;4.38;;;27.80;1.00;;;;;;5112918;28;20030;-49
2022/07/28 06:03:06;;;;;;;4.95;4.55;;;27.90;1.00;;;;;;5112478;28;20318;-52
2022/07/28 06:05:32;;;;;;;4.60;4.20;;;27.80;1.00;;;;;;5112377;28;20027;-49
2022/07/28 06:07:59;;;;;;;5.03;4.40;;;27.90;1.00;;;;;;5113982;28;20047;-53
2022/07/28 06:10:57;;;;;;;4.93;4.47;;;27.90;1.00;;;;;;5114258;28;20027;-49
2022/07/28 06:13:13;;;;;;;4.95;4.35;;;27.90;1.00;;;;;;5110890;28;20024;-52
2022/07/28 06:15:39;;;;;;;6.05;4.03;;;28.00;1.00;;;;;;5112660;28;20078;-51
2022/07/28 06:18:05;;;;;;;4.43;4.05;;;27.90;1.00;;;;;;5112459;28;20058;-52
2022/07/28 06:20:31;;;;;;;5.07;4.57;;;27.90;1.00;;;;;;5113387;28;20366;-53
2022/07/28 06:22:56;;;;;;;7.32;4.40;;;27.90;1.00;;;;;;5112020;28;20409;-48
2022/07/28 06:25:24;;;;;;;5.22;4.18;;;27.70;1.00;;;;;;5113016;28;20472;-48
2022/07/28 06:27:55;;;;;;;4.47;4.07;;;27.90;1.00;;;;;;5111579;28;20035;-50
2022/07/28 06:30:22;;;;;;;4.82;4.25;;;28.00;1.00;;;;;;5110284;28;20514;-50
2022/07/28 06:32:48;;;;;;;6.90;4.70;;;28.00;1.00;;;;;;5112751;28;20023;-47
2022/07/28 06:35:15;;;;;;;4.78;4.38;;;27.90;1.00;;;;;;5107867;28;20491;-51
2022/07/28 06:37:45;;;;;;;4.43;4.00;;;28.00;1.00;;;;;;5112097;28;20377;-50
2022/07/28 06:40:12;;;;;;;5.00;4.47;;;28.00;1.00;;;;;;5113050;28;20036;-49
2022/07/28 06:42:38;;;;;;;4.50;4.10;;;28.00;1.00;;;;;;5100896;28;20023;-55
2022/07/28 06:45:05;;;;;;;4.25;3.85;;;28.00;1.00;;;;;;5107862;28;20027;-52
2022/07/28 06:47:31;;;;;;;4.43;3.97;;;27.90;1.00;;;;;;5113547;28;20022;-57
2022/07/28 06:49:57;;;;;;;4.00;3.70;;;28.00;1.00;;;;;;5114277;28;20035;-51
2022/07/28 06:52:23;;;;;;;4.82;4.10;;;28.00;1.00;;;;;;5112831;28;20026;-56
2022/07/28 06:54:50;;;;;;;8.02;5.10;;;28.00;1.00;;;;;;5109076;28;20040;-49
2022/07/28 06:58:11;;;;;;;4.40;4.03;;;28.00;1.00;;;;;;5109254;28;20473;-55
2022/07/28 07:00:37;;;;;;;4.90;4.35;;;28.10;1.00;;;;;;5113186;28;20031;-54
2022/07/28 07:03:03;;;;;;;6.07;4.90;;;28.20;1.00;;;;;;5107863;28;20027;-50
2022/07/28 07:05:30;;;;;;;7.68;4.47;;;28.30;1.00;;;;;;5113945;28;20055;-52
2022/07/28 07:07:56;;;;;;;4.43;4.03;;;28.20;1.00;;;;;;5112889;28;20031;-56
2022/07/28 07:10:22;;;;;;;5.07;4.13;;;28.20;1.00;;;;;;5113737;28;20038;-58
2022/07/28 07:12:47;;;;;;;5.90;4.50;;;28.20;1.00;;;;;;5107743;28;20020;-57
2022/07/28 07:15:13;;;;;;;4.95;4.53;;;28.10;1.00;;;;;;5113526;28;20019;-59
2022/07/28 07:17:40;;;;;;;5.45;4.68;;;28.10;1.00;;;;;;5109646;28;20019;-58
2022/07/28 07:20:07;;;;;;;5.78;4.70;;;28.10;1.00;;;;;;5104335;28;20055;-62
2022/07/28 07:22:33;;;;;;;6.38;4.70;;;28.20;1.00;;;;;;5113000;28;20156;-54
2022/07/28 07:25:28;;;;;;;6.05;4.68;;;28.20;1.00;;;;;;5112267;28;20073;-53
2022/07/28 07:27:54;;;;;;;5.53;4.78;;;28.30;1.00;;;;;;5091692;28;20130;-48
2022/07/28 07:30:20;;;;;;;4.13;3.78;;;28.30;1.00;;;;;;5103360;28;20115;-58
2022/07/28 07:32:46;;;;;;;5.05;4.55;;;28.40;1.00;;;;;;5111253;28;20111;-47
2022/07/28 07:35:12;;;;;;;5.00;4.53;;;28.40;1.00;;;;;;5106499;28;20511;-46
2022/07/28 07:37:38;;;;;;;4.70;4.35;;;28.40;1.00;;;;;;5076024;28;20016;-49
2022/07/28 07:40:05;;;;;;;5.13;4.63;;;28.40;1.00;;;;;;5103559;28;20023;-50
2022/07/28 07:42:31;;;;;;;4.72;4.32;;;28.40;1.00;;;;;;5104938;28;20078;-53
2022/07/28 07:44:56;;;;;;;5.18;4.78;;;28.20;1.00;;;;;;5111560;28;20039;-46
2022/07/28 07:47:22;;;;;;;5.07;4.63;;;28.30;1.00;;;;;;5112328;28;20024;-44
2022/07/28 07:49:48;;;;;;;4.78;3.95;;;28.40;1.00;;;;;;5093959;28;20048;-58
2022/07/28 07:52:14;;;;;;;5.30;4.82;;;28.60;1.00;;;;;;5113198;27;20015;-57
2022/07/28 07:54:39;;;;;;;5.40;5.00;;;28.80;1.00;;;;;;5112249;28;20039;-60
2022/07/28 07:57:05;;;;;;;4.90;4.43;;;28.80;1.00;;;;;;5094845;28;20331;-51
2022/07/28 07:59:31;;;;;;;7.43;5.07;;;28.90;1.00;;;;;;5111797;28;20389;-52
2022/07/28 08:01:56;;;;;;;6.97;5.10;;;28.90;1.00;;;;;;5112689;28;20105;-52
2022/07/28 08:04:23;;;;;;;5.30;4.80;;;28.90;1.00;;;;;;5112132;28;20468;-51
2022/07/28 08:06:50;;;;;;;5.22;4.68;;;29.00;1.00;;;;;;5112927;28;20033;-50
2022/07/28 08:09:16;;;;;;;6.22;4.80;;;29.00;1.00;;;;;;5099839;28;20085;-52
2022/07/28 08:11:42;;;;;;;7.00;4.60;;;29.10;1.00;;;;;;5110752;28;20047;-52
2022/07/28 08:14:08;;;;;;;4.97;4.50;;;29.10;1.00;;;;;;5111912;28;20031;-58
2022/07/28 08:16:33;;;;;;;6.28;4.82;;;29.10;1.00;;;;;;5112938;28;20585;-61
2022/07/28 08:18:59;;;;;;;4.63;4.22;;;29.20;1.00;;;;;;5111314;28;20059;-53
2022/07/28 08:21:26;;;;;;;5.68;5.07;;;29.20;1.00;;;;;;5111299;28;20057;-52
2022/07/28 08:23:54;;;;;;;6.70;4.28;;;29.30;1.00;;;;;;5111027;28;20042;-52
2022/07/28 08:26:20;;;;;;;5.75;4.47;;;29.30;1.00;;;;;;5112606;28;20016;-47
2022/07/28 08:28:46;;;;;;;5.10;4.60;;;29.50;1.00;;;;;;5109662;28;20150;-46
2022/07/28 08:31:12;;;;;;;6.80;4.95;;;29.50;1.00;;;;;;5111544;28;20494;-47
2022/07/28 08:33:37;;;;;;;5.97;5.43;;;29.40;1.00;;;;;;5109896;28;20035;-46
2022/07/28 08:36:03;;;;;;;5.55;4.72;;;29.40;1.00;;;;;;5092296;28;20035;-57
2022/07/28 08:38:29;;;;;;;5.07;4.55;;;29.40;1.00;;;;;;5106216;28;20016;-59
2022/07/28 08:40:56;;;;;;;5.32;4.85;;;29.40;1.00;;;;;;5100534;28;20131;-59
2022/07/28 08:43:37;;;;;;;10.93;5.25;;;29.50;1.00;;;;;;5109333;28;20019;-51
2022/07/28 08:46:05;;;;;;;5.57;5.05;;;29.60;1.00;;;;;;5100130;28;20028;-55
2022/07/28 08:48:33;;;;;;;5.28;4.55;;;29.60;1.00;;;;;;5108491;28;20366;-50
2022/07/28 08:51:08;;;;;;;5.57;4.78;;;29.60;1.00;;;;;;5098265;28;20448;-48
2022/07/28 08:53:35;;;;;;;5.30;4.80;;;29.60;1.00;;;;;;5108678;28;20077;-50
2022/07/28 08:56:05;;;;;;;6.22;5.63;;;29.50;1.00;;;;;;5112213;28;20102;-57
2022/07/28 08:58:32;;;;;;;5.35;4.85;;;29.20;1.00;;;;;;5108125;28;20019;-53
2022/07/28 09:00:58;;;;;;;6.05;5.45;;;29.40;1.00;;;;;;5111703;28;20461;-56
2022/07/28 09:03:26;;;;;;;6.07;5.47;;;29.60;1.00;;;;;;5104028;28;20108;-55
2022/07/28 09:05:53;;;;;;;6.05;5.55;;;29.70;1.00;;;;;;5094681;28;20032;-58
2022/07/28 09:08:18;;;;;;;6.78;4.85;;;29.80;1.00;;;;;;5110683;28;20031;-57
2022/07/28 09:10:45;;;;;;;8.30;5.60;;;29.80;1.00;;;;;;5108285;28;20044;-48
2022/07/28 09:13:11;;;;;;;6.80;5.20;;;29.80;1.00;;;;;;5108610;28;20019;-46
2022/07/28 09:15:37;;;;;;;5.82;5.32;;;29.70;1.00;;;;;;5102809;28;20039;-46
2022/07/28 09:18:03;;;;;;;6.35;5.47;;;29.90;1.00;;;;;;5107027;28;20462;-47
2022/07/28 09:20:29;;;;;;;5.45;5.05;;;30.00;1.00;;;;;;5099685;28;20027;-50
2022/07/28 09:23:02;;;;;;;6.88;4.85;;;30.00;1.00;;;;;;5112229;28;20517;-49
2022/07/28 09:25:28;;;;;;;6.55;4.97;;;29.90;1.00;;;;;;5092809;28;20049;-47
2022/07/28 09:27:55;;;;;;;6.03;5.25;;;29.90;1.00;;;;;;5111074;28;20027;-48
2022/07/28 09:30:32;;;;;;;8.05;4.90;;;30.00;1.00;;;;;;5109275;28;20027;-50
2022/07/28 09:33:31;;;;;;;6.15;5.07;;;29.90;1.00;;;;;;5111305;28;20027;-48
2022/07/28 09:35:58;;;;;;;7.30;5.07;;;29.90;1.00;;;;;;5047961;28;20036;-53
2022/07/28 09:38:26;;;;;;;5.97;5.47;;;29.90;1.00;;;;;;5109828;28;20032;-52
2022/07/28 09:41:00;;;;;;;6.03;5.45;;;30.00;1.00;;;;;;5107193;28;20031;-59
2022/07/28 09:43:42;;;;;;;6.45;5.85;;;30.00;1.00;;;;;;5107185;28;20027;-57
2022/07/28 09:46:09;;;;;;;6.05;5.57;;;29.80;1.00;;;;;;5101676;28;20103;-60
2022/07/28 09:48:48;;;;;;;5.05;4.55;;;29.90;1.00;;;;;;5113249;28;20386;-51
2022/07/28 09:51:40;;;;;;;9.23;5.72;;;29.90;1.00;;;;;;5101241;28;20040;-49
2022/07/28 09:54:14;;;;;;;5.65;5.03;;;29.80;1.00;;;;;;5101287;28;20111;-49
2022/07/28 09:56:43;;;;;;;6.47;5.88;;;29.80;1.00;;;;;;5109746;28;20029;-49
2022/07/28 09:59:10;;;;;;;7.20;6.03;;;29.80;1.00;;;;;;5105021;28;20028;-55
2022/07/28 10:01:57;;;;;;;7.95;5.28;;;29.90;1.00;;;;;;5112086;28;20031;-52
2022/07/28 10:04:33;;;;;;;5.53;5.13;;;30.10;1.00;;;;;;5100768;28;20028;-61
2022/07/28 10:07:04;;;;;;;6.10;5.55;;;30.10;1.00;;;;;;5102230;28;20095;-56
2022/07/28 10:09:30;;;;;;;5.97;5.40;;;30.10;1.00;;;;;;5108897;28;20564;-59
2022/07/28 10:12:21;;;;;;;6.50;5.88;;;30.20;1.00;;;;;;5100610;28;20098;-47
2022/07/28 10:14:52;;;;;;;6.72;5.70;;;30.20;1.00;;;;;;5100921;28;20469;-48
2022/07/28 10:17:32;;;;;;;6.78;5.70;;;30.20;1.00;;;;;;5095399;28;20358;-50
2022/07/28 10:20:05;;;;;;;7.30;6.22;;;30.10;1.00;;;;;;5113192;28;20028;-52
2022/07/28 10:22:33;;;;;;;6.05;5.55;;;30.20;1.00;;;;;;5110658;28;20035;-50
2022/07/28 10:25:06;;;;;;;7.40;5.47;;;30.20;1.00;;;;;;5097698;28;20054;-51
2022/07/28 10:27:32;;;;;;;7.25;6.60;;;30.30;1.00;;;;;;5100215;28;20035;-48
2022/07/28 10:30:03;;;;;;;7.68;6.35;;;30.30;1.00;;;;;;5109040;28;20171;-52
2022/07/28 10:32:37;;;;;;;7.35;6.05;;;30.30;1.00;;;;;;5095524;28;20036;-49
2022/07/28 10:35:06;;;;;;;13.27;6.68;;;30.40;1.00;;;;;;5112815;28;20059;-49
2022/07/28 10:37:36;;;;;;;6.70;6.07;;;30.40;1.00;;;;;;5114298;28;20058;-50
2022/07/28 10:40:07;;;;;;;6.13;5.65;;;30.30;1.00;;;;;;5110454;28;20030;-53
2022/07/28 10:42:34;;;;;;;6.45;6.00;;;30.30;1.00;;;;;;5112920;28;20489;-52
2022/07/28 10:45:04;;;;;;;6.50;5.78;;;30.30;1.00;;;;;;5112396;28;20051;-48
2022/07/28 10:47:29;;;;;;;6.28;5.55;;;30.60;1.00;;;;;;5111635;28;20027;-50
2022/07/28 10:49:55;;;;;;;7.53;5.65;;;30.90;1.00;;;;;;5109695;28;20062;-50
2022/07/28 10:52:22;;;;;;;8.38;5.60;;;30.70;1.00;;;;;;5113102;28;20008;-51
2022/07/28 10:55:03;;;;;;;6.35;5.60;;;30.90;1.00;;;;;;5112350;28;20039;-48
2022/07/28 10:57:30;;;;;;;6.82;5.80;;;30.70;1.00;;;;;;5108335;28;20028;-48
2022/07/28 11:00:15;;;;;;;7.65;6.03;;;30.60;1.00;;;;;;5110463;28;20038;-48
2022/07/28 11:02:49;;;;;;;6.05;5.32;;;30.80;1.00;;;;;;5101026;28;20048;-49
2022/07/28 11:05:24;;;;;;;7.40;6.63;;;31.00;1.00;;;;;;5099295;28;20031;-50
2022/07/28 11:07:50;;;;;;;6.88;6.28;;;30.80;1.00;;;;;;5108672;28;20020;-49
2022/07/28 11:10:18;;;;;;;7.43;6.28;;;31.00;1.00;;;;;;5112638;28;20039;-53
2022/07/28 11:12:45;;;;;;;6.50;5.90;;;31.00;1.00;;;;;;5114186;28;20047;-49
2022/07/28 11:15:27;;;;;;;6.38;5.70;;;31.00;1.00;;;;;;5102304;28;20035;-52
2022/07/28 11:17:58;;;;;;;7.82;7.25;;;31.20;1.00;;;;;;5113752;28;20016;-51
2022/07/28 11:20:51;;;;;;;7.47;6.40;;;31.10;1.00;;;;;;5092263;28;20451;-49
2022/07/28 11:23:42;;;;;;;9.05;6.25;;;31.20;1.00;;;;;;5112861;28;20042;-49
2022/07/28 11:26:20;;;;;;;6.88;5.85;;;31.50;1.00;;;;;;5104832;28;20115;-52
2022/07/28 11:29:04;;;;;;;7.45;6.75;;;31.50;1.00;;;;;;5111329;28;20027;-53
2022/07/28 11:31:50;;;;;;;7.00;6.30;;;31.60;1.00;;;;;;5112521;28;20035;-51
2022/07/28 11:34:17;;;;;;;7.30;5.80;;;31.80;1.00;;;;;;5090657;28;20096;-49
2022/07/28 11:36:57;;;;;;;7.88;7.15;;;32.10;1.00;;;;;;5106031;28;20059;-50
2022/07/28 11:39:25;;;;;;;6.65;6.00;;;32.40;1.00;;;;;;5105170;28;20035;-52
2022/07/28 11:41:50;;;;;;;6.63;6.03;;;32.50;1.00;;;;;;5102168;28;20051;-53
2022/07/28 11:44:30;;;;;;;7.13;6.30;;;32.80;1.00;;;;;;5110836;28;20019;-49
2022/07/28 11:47:15;;;;;;;6.82;6.13;;;33.10;1.00;;;;;;5110460;28;20114;-49
2022/07/28 11:49:42;;;;;;;7.53;6.70;;;33.60;1.00;;;;;;5102881;28;20126;-54
2022/07/28 11:52:16;;;;;;;8.95;6.65;;;33.70;1.00;;;;;;5113041;28;20027;-50
2022/07/28 11:54:47;;;;;;;6.20;5.68;;;34.20;1.00;;;;;;5106796;28;20033;-48
2022/07/28 11:57:12;;;;;;;6.10;5.60;;;34.90;1.00;;;;;;5093580;28;20016;-47
2022/07/28 11:59:45;;;;;;;8.00;6.57;;;36.20;1.00;;;;;;5112559;28;20031;-50
2022/07/28 12:02:17;;;;;;;6.87;5.90;;;36.50;1.00;;;;;;5107701;28;20028;-48
2022/07/28 12:04:44;;;;;;;6.33;5.93;;;36.40;1.00;;;;;;5112997;28;20106;-52
2022/07/28 12:07:10;;;;;;;6.82;6.10;;;36.60;1.00;;;;;;5108192;28;20433;-53
2022/07/28 12:09:37;;;;;;;8.70;6.18;;;37.30;1.00;;;;;;5112668;28;20031;-50
2022/07/28 12:12:05;;;;;;;7.40;6.70;;;38.40;1.00;;;;;;5105897;28;20027;-48
2022/07/28 12:14:37;;;;;;;7.13;6.50;;;38.20;1.00;;;;;;5112673;28;20026;-48
2022/07/28 12:17:03;;;;;;;9.57;8.75;;;39.40;1.00;;;;;;5111253;27;20388;-48
2022/07/28 12:19:30;;;;;;;7.35;6.68;;;41.20;1.00;;;;;;5100787;28;20020;-50
2022/07/28 12:21:55;;;;;;;6.93;6.32;;;42.80;1.00;;;;;;5105665;28;20628;-50
2022/07/28 12:24:30;;;;;;;7.13;6.53;;;43.90;1.00;;;;;;5112549;28;20139;-50
2022/07/28 12:26:57;;;;;;;6.65;6.15;;;44.60;1.00;;;;;;5106048;28;20058;-47
2022/07/28 12:29:23;;;;;;;7.47;6.80;;;44.40;1.00;;;;;;5110815;28;20526;-48
2022/07/28 12:31:54;;;;;;;7.45;6.70;;;44.20;1.00;;;;;;5112017;28;20035;-51
2022/07/28 12:34:20;;;;;;;7.05;6.55;;;43.90;1.00;;;;;;5112363;28;20020;-49
2022/07/28 12:36:46;;;;;;;7.13;6.63;;;43.50;1.00;;;;;;5105819;28;20040;-53
2022/07/28 12:39:15;;;;;;;6.82;6.32;;;42.90;1.00;;;;;;5093692;28;20024;-50
2022/07/28 12:41:41;;;;;;;7.70;7.00;;;42.00;1.00;;;;;;5111471;28;20056;-51
2022/07/28 12:44:07;;;;;;;8.02;7.40;;;41.00;1.00;;;;;;5112333;28;20023;-51
2022/07/28 12:46:33;;;;;;;9.75;7.40;;;40.60;1.00;;;;;;5107740;28;20362;-53
2022/07/28 12:49:01;;;;;;;10.25;7.60;;;40.30;1.00;;;;;;5092507;28;20440;-49
2022/07/28 12:51:37;;;;;;;8.52;7.80;;;40.20;1.00;;;;;;5097631;28;20428;-54
2022/07/28 12:54:05;;;;;;;8.15;7.65;;;39.50;1.00;;;;;;5107486;28;20450;-50
2022/07/28 12:56:46;;;;;;;8.50;7.90;;;39.00;1.00;;;;;;5111205;28;20045;-48
2022/07/28 12:59:12;;;;;;;8.65;7.82;;;38.40;1.00;;;;;;5107084;28;20024;-53
2022/07/28 13:01:54;;;;;;;8.52;8.02;;;38.30;1.00;;;;;;5107858;28;20020;-51
2022/07/28 13:04:40;;;;;;;7.40;6.90;;;38.40;1.00;;;;;;5097364;28;20043;-50
2022/07/28 13:07:11;;;;;;;7.55;7.05;;;38.90;1.00;;;;;;5111292;28;20237;-51
2022/07/28 13:09:45;;;;;;;8.25;7.68;;;39.20;1.00;;;;;;5111850;28;20042;-48
2022/07/28 13:12:22;;;;;;;7.95;7.50;;;39.60;1.00;;;;;;5108375;28;20095;-49
2022/07/28 13:14:54;;;;;;;7.75;7.25;;;40.90;1.00;;;;;;5114386;28;20045;-50